sensor_id;sensor_type;location;lat;lon;timestamp;P1;durP1;ratioP1;P2;durP2;ratioP2
50757;SDS011;36732;47.980;11.652;2022-11-15T00:00:52;3.20;;;2.67;;
50757;SDS011;36732;47.980;11.652;2022-11-15T00:03:27;3.90;;;3.22;;
50757;SDS011;36732;47.980;11.652;2022-11-15T00:05:52;3.58;;;2.50;;
50757;SDS011;36732;47.980;11.652;2022-11-15T00:08:18;2.90;;;2.45;;
50757;SDS011;36732;47.980;11.652;2022-11-15T00:10:57;6.68;;;2.35;;
50757;SDS011;36732;47.980;11.652;2022-11-15T00:13:25;3.63;;;2.45;;
50757;SDS011;36732;47.980;11.652;2022-11-15T00:15:52;3.60;;;2.20;;
50757;SDS011;36732;47.980;11.652;2022-11-15T00:18:18;2.92;;;2.10;;
50757;SDS011;36732;47.980;11.652;2022-11-15T00:20:43;2.80;;;2.00;;
50757;SDS011;36732;47.980;11.652;2022-11-15T00:23:09;3.38;;;1.90;;
50757;SDS011;36732;47.980;11.652;2022-11-15T00:25:35;2.72;;;1.88;;
50757;SDS011;36732;47.980;11.652;2022-11-15T00:28:01;2.97;;;2.13;;
50757;SDS011;36732;47.980;11.652;2022-11-15T00:30:27;2.63;;;2.15;;
50757;SDS011;36732;47.980;11.652;2022-11-15T00:32:54;2.65;;;1.80;;
50757;SDS011;36732;47.980;11.652;2022-11-15T00:35:20;3.13;;;1.50;;
50757;SDS011;36732;47.980;11.652;2022-11-15T00:37:46;2.90;;;1.92;;
50757;SDS011;36732;47.980;11.652;2022-11-15T00:40:13;1.60;;;1.50;;
50757;SDS011;36732;47.980;11.652;2022-11-15T00:42:39;1.90;;;1.40;;
50757;SDS011;36732;47.980;11.652;2022-11-15T00:45:06;1.67;;;1.45;;
50757;SDS011;36732;47.980;11.652;2022-11-15T00:47:32;1.92;;;1.52;;
50757;SDS011;36732;47.980;11.652;2022-11-15T00:49:58;1.73;;;1.63;;
50757;SDS011;36732;47.980;11.652;2022-11-15T00:52:23;1.67;;;1.45;;
50757;SDS011;36732;47.980;11.652;2022-11-15T00:54:49;1.85;;;1.65;;
50757;SDS011;36732;47.980;11.652;2022-11-15T00:57:15;2.40;;;1.75;;
50757;SDS011;36732;47.980;11.652;2022-11-15T00:59:41;1.52;;;1.42;;
50757;SDS011;36732;47.980;11.652;2022-11-15T01:02:07;2.13;;;1.65;;
50757;SDS011;36732;47.980;11.652;2022-11-15T01:04:32;2.15;;;1.73;;
50757;SDS011;36732;47.980;11.652;2022-11-15T01:06:58;2.15;;;1.65;;
50757;SDS011;36732;47.980;11.652;2022-11-15T01:09:24;2.17;;;1.50;;
50757;SDS011;36732;47.980;11.652;2022-11-15T01:11:49;1.33;;;1.23;;
50757;SDS011;36732;47.980;11.652;2022-11-15T01:14:15;1.45;;;1.20;;
50757;SDS011;36732;47.980;11.652;2022-11-15T01:16:41;1.45;;;1.35;;
50757;SDS011;36732;47.980;11.652;2022-11-15T01:19:07;1.02;;;0.90;;
50757;SDS011;36732;47.980;11.652;2022-11-15T01:21:32;2.22;;;1.45;;
50757;SDS011;36732;47.980;11.652;2022-11-15T01:23:58;1.35;;;1.25;;
50757;SDS011;36732;47.980;11.652;2022-11-15T01:26:24;1.10;;;0.95;;
50757;SDS011;36732;47.980;11.652;2022-11-15T01:28:50;1.42;;;1.10;;
50757;SDS011;36732;47.980;11.652;2022-11-15T01:31:20;1.42;;;1.10;;
50757;SDS011;36732;47.980;11.652;2022-11-15T01:33:47;1.35;;;1.02;;
50757;SDS011;36732;47.980;11.652;2022-11-15T01:36:17;1.23;;;0.90;;
50757;SDS011;36732;47.980;11.652;2022-11-15T01:41:19;1.10;;;1.02;;
50757;SDS011;36732;47.980;11.652;2022-11-15T01:43:51;1.13;;;1.00;;
50757;SDS011;36732;47.980;11.652;2022-11-15T01:48:57;1.25;;;1.08;;
50757;SDS011;36732;47.980;11.652;2022-11-15T01:51:29;1.40;;;1.30;;
50757;SDS011;36732;47.980;11.652;2022-11-15T01:53:58;1.30;;;1.20;;
50757;SDS011;36732;47.980;11.652;2022-11-15T01:56:29;1.63;;;1.10;;
50757;SDS011;36732;47.980;11.652;2022-11-15T01:58:58;2.10;;;1.20;;
50757;SDS011;36732;47.980;11.652;2022-11-15T02:01:30;1.40;;;1.10;;
50757;SDS011;36732;47.980;11.652;2022-11-15T02:04:02;1.38;;;1.10;;
50757;SDS011;36732;47.980;11.652;2022-11-15T02:06:38;1.10;;;1.00;;
50757;SDS011;36732;47.980;11.652;2022-11-15T02:09:05;1.55;;;1.13;;
50757;SDS011;36732;47.980;11.652;2022-11-15T02:11:31;3.00;;;1.50;;
50757;SDS011;36732;47.980;11.652;2022-11-15T02:13:57;1.77;;;1.25;;
50757;SDS011;36732;47.980;11.652;2022-11-15T02:21:50;1.75;;;1.13;;
50757;SDS011;36732;47.980;11.652;2022-11-15T02:30:21;1.00;;;0.90;;
50757;SDS011;36732;47.980;11.652;2022-11-15T02:32:57;1.73;;;1.10;;
50757;SDS011;36732;47.980;11.652;2022-11-15T02:36:07;1.42;;;1.33;;
50757;SDS011;36732;47.980;11.652;2022-11-15T02:38:57;1.52;;;1.15;;
50757;SDS011;36732;47.980;11.652;2022-11-15T02:41:47;1.20;;;1.10;;
50757;SDS011;36732;47.980;11.652;2022-11-15T02:44:36;1.45;;;1.10;;
50757;SDS011;36732;47.980;11.652;2022-11-15T02:47:07;1.70;;;1.25;;
50757;SDS011;36732;47.980;11.652;2022-11-15T02:49:47;1.00;;;1.00;;
50757;SDS011;36732;47.980;11.652;2022-11-15T02:52:16;1.38;;;0.90;;
50757;SDS011;36732;47.980;11.652;2022-11-15T02:54:57;0.85;;;0.80;;
50757;SDS011;36732;47.980;11.652;2022-11-15T03:00:21;1.48;;;0.98;;
50757;SDS011;36732;47.980;11.652;2022-11-15T03:05:35;1.00;;;0.90;;
50757;SDS011;36732;47.980;11.652;2022-11-15T03:11:17;1.98;;;0.95;;
50757;SDS011;36732;47.980;11.652;2022-11-15T03:13:59;0.85;;;0.82;;
50757;SDS011;36732;47.980;11.652;2022-11-15T03:16:45;1.35;;;1.20;;
50757;SDS011;36732;47.980;11.652;2022-11-15T03:21:59;0.93;;;0.82;;
50757;SDS011;36732;47.980;11.652;2022-11-15T03:24:28;1.08;;;0.70;;
50757;SDS011;36732;47.980;11.652;2022-11-15T03:26:56;0.90;;;0.70;;
50757;SDS011;36732;47.980;11.652;2022-11-15T03:29:30;1.17;;;1.08;;
50757;SDS011;36732;47.980;11.652;2022-11-15T03:32:02;0.88;;;0.80;;
50757;SDS011;36732;47.980;11.652;2022-11-15T03:34:40;0.93;;;0.80;;
50757;SDS011;36732;47.980;11.652;2022-11-15T03:37:14;0.73;;;0.73;;
50757;SDS011;36732;47.980;11.652;2022-11-15T03:39:42;1.35;;;0.98;;
50757;SDS011;36732;47.980;11.652;2022-11-15T03:45:03;0.93;;;0.80;;
50757;SDS011;36732;47.980;11.652;2022-11-15T03:47:48;2.13;;;0.70;;
50757;SDS011;36732;47.980;11.652;2022-11-15T03:50:19;1.00;;;0.88;;
50757;SDS011;36732;47.980;11.652;2022-11-15T03:52:47;1.20;;;1.10;;
50757;SDS011;36732;47.980;11.652;2022-11-15T03:55:18;1.42;;;1.10;;
50757;SDS011;36732;47.980;11.652;2022-11-15T03:57:47;1.45;;;1.15;;
50757;SDS011;36732;47.980;11.652;2022-11-15T04:00:15;1.52;;;1.08;;
50757;SDS011;36732;47.980;11.652;2022-11-15T04:02:41;1.15;;;1.05;;
50757;SDS011;36732;47.980;11.652;2022-11-15T04:05:07;1.17;;;1.00;;
50757;SDS011;36732;47.980;11.652;2022-11-15T04:07:33;1.25;;;1.15;;
50757;SDS011;36732;47.980;11.652;2022-11-15T04:09:59;1.15;;;1.00;;
50757;SDS011;36732;47.980;11.652;2022-11-15T04:12:34;1.90;;;1.35;;
50757;SDS011;36732;47.980;11.652;2022-11-15T04:15:06;1.98;;;1.10;;
50757;SDS011;36732;47.980;11.652;2022-11-15T04:17:38;1.48;;;1.38;;
50757;SDS011;36732;47.980;11.652;2022-11-15T04:20:08;1.38;;;1.10;;
50757;SDS011;36732;47.980;11.652;2022-11-15T04:23:07;1.20;;;1.00;;
50757;SDS011;36732;47.980;11.652;2022-11-15T04:26:05;1.38;;;1.27;;
50757;SDS011;36732;47.980;11.652;2022-11-15T04:28:38;2.92;;;1.08;;
50757;SDS011;36732;47.980;11.652;2022-11-15T04:31:22;0.93;;;0.85;;
50757;SDS011;36732;47.980;11.652;2022-11-15T04:33:48;1.05;;;0.90;;
50757;SDS011;36732;47.980;11.652;2022-11-15T04:36:14;1.50;;;0.90;;
50757;SDS011;36732;47.980;11.652;2022-11-15T04:38:58;1.00;;;0.90;;
50757;SDS011;36732;47.980;11.652;2022-11-15T04:41:24;0.95;;;0.90;;
50757;SDS011;36732;47.980;11.652;2022-11-15T04:43:49;1.92;;;1.08;;
50757;SDS011;36732;47.980;11.652;2022-11-15T04:46:15;1.35;;;1.10;;
50757;SDS011;36732;47.980;11.652;2022-11-15T04:48:41;1.00;;;0.90;;
50757;SDS011;36732;47.980;11.652;2022-11-15T04:51:07;1.48;;;0.93;;
50757;SDS011;36732;47.980;11.652;2022-11-15T04:53:32;1.05;;;0.90;;
50757;SDS011;36732;47.980;11.652;2022-11-15T04:55:58;1.25;;;0.90;;
50757;SDS011;36732;47.980;11.652;2022-11-15T04:58:24;1.48;;;1.13;;
50757;SDS011;36732;47.980;11.652;2022-11-15T05:00:50;3.33;;;1.35;;
50757;SDS011;36732;47.980;11.652;2022-11-15T05:03:15;1.40;;;1.27;;
50757;SDS011;36732;47.980;11.652;2022-11-15T05:06:00;2.35;;;1.23;;
50757;SDS011;36732;47.980;11.652;2022-11-15T05:08:26;3.65;;;1.30;;
50757;SDS011;36732;47.980;11.652;2022-11-15T05:10:52;1.30;;;1.20;;
50757;SDS011;36732;47.980;11.652;2022-11-15T05:13:18;1.50;;;1.35;;
50757;SDS011;36732;47.980;11.652;2022-11-15T05:15:43;2.50;;;1.27;;
50757;SDS011;36732;47.980;11.652;2022-11-15T05:18:09;2.00;;;1.52;;
50757;SDS011;36732;47.980;11.652;2022-11-15T05:20:35;1.35;;;1.20;;
50757;SDS011;36732;47.980;11.652;2022-11-15T05:23:01;2.28;;;2.08;;
50757;SDS011;36732;47.980;11.652;2022-11-15T05:25:27;2.03;;;1.83;;
50757;SDS011;36732;47.980;11.652;2022-11-15T05:27:52;2.58;;;1.70;;
50757;SDS011;36732;47.980;11.652;2022-11-15T05:30:18;2.75;;;2.10;;
50757;SDS011;36732;47.980;11.652;2022-11-15T05:32:44;3.35;;;2.45;;
50757;SDS011;36732;47.980;11.652;2022-11-15T05:35:12;8.85;;;6.57;;
50757;SDS011;36732;47.980;11.652;2022-11-15T05:37:45;11.95;;;8.93;;
50757;SDS011;36732;47.980;11.652;2022-11-15T05:40:11;11.80;;;9.50;;
50757;SDS011;36732;47.980;11.652;2022-11-15T05:42:37;9.98;;;6.80;;
50757;SDS011;36732;47.980;11.652;2022-11-15T05:45:04;5.72;;;4.20;;
50757;SDS011;36732;47.980;11.652;2022-11-15T05:47:31;4.65;;;2.75;;
50757;SDS011;36732;47.980;11.652;2022-11-15T05:50:00;3.80;;;2.80;;
50757;SDS011;36732;47.980;11.652;2022-11-15T05:52:28;4.00;;;2.90;;
50757;SDS011;36732;47.980;11.652;2022-11-15T05:54:56;4.13;;;3.25;;
50757;SDS011;36732;47.980;11.652;2022-11-15T05:57:23;8.40;;;5.85;;
50757;SDS011;36732;47.980;11.652;2022-11-15T05:59:49;11.65;;;7.10;;
50757;SDS011;36732;47.980;11.652;2022-11-15T06:02:16;16.25;;;9.80;;
50757;SDS011;36732;47.980;11.652;2022-11-15T06:04:41;16.85;;;11.40;;
50757;SDS011;36732;47.980;11.652;2022-11-15T06:07:07;15.23;;;10.35;;
50757;SDS011;36732;47.980;11.652;2022-11-15T06:09:33;10.55;;;6.32;;
50757;SDS011;36732;47.980;11.652;2022-11-15T06:11:58;9.98;;;7.45;;
50757;SDS011;36732;47.980;11.652;2022-11-15T06:14:24;9.13;;;5.80;;
50757;SDS011;36732;47.980;11.652;2022-11-15T06:16:50;4.07;;;3.30;;
50757;SDS011;36732;47.980;11.652;2022-11-15T06:19:15;2.90;;;2.35;;
50757;SDS011;36732;47.980;11.652;2022-11-15T06:21:41;2.20;;;1.50;;
50757;SDS011;36732;47.980;11.652;2022-11-15T06:24:07;1.90;;;1.80;;
50757;SDS011;36732;47.980;11.652;2022-11-15T06:26:33;2.00;;;1.70;;
50757;SDS011;36732;47.980;11.652;2022-11-15T06:28:59;1.90;;;1.60;;
50757;SDS011;36732;47.980;11.652;2022-11-15T06:31:24;2.90;;;2.10;;
50757;SDS011;36732;47.980;11.652;2022-11-15T06:33:50;37.05;;;17.92;;
50757;SDS011;36732;47.980;11.652;2022-11-15T06:36:16;87.68;;;44.55;;
50757;SDS011;36732;47.980;11.652;2022-11-15T06:38:43;117.55;;;59.28;;
50757;SDS011;36732;47.980;11.652;2022-11-15T06:41:10;74.72;;;37.78;;
50757;SDS011;36732;47.980;11.652;2022-11-15T06:43:36;41.92;;;21.50;;
50757;SDS011;36732;47.980;11.652;2022-11-15T06:46:03;32.95;;;16.85;;
50757;SDS011;36732;47.980;11.652;2022-11-15T06:48:30;18.38;;;9.80;;
50757;SDS011;36732;47.980;11.652;2022-11-15T06:50:58;7.72;;;4.07;;
50757;SDS011;36732;47.980;11.652;2022-11-15T06:53:25;10.18;;;3.53;;
50757;SDS011;36732;47.980;11.652;2022-11-15T06:55:52;9.57;;;3.25;;
50757;SDS011;36732;47.980;11.652;2022-11-15T06:58:18;3.85;;;2.50;;
50757;SDS011;36732;47.980;11.652;2022-11-15T07:00:45;3.60;;;2.50;;
50757;SDS011;36732;47.980;11.652;2022-11-15T07:03:11;6.90;;;4.00;;
50757;SDS011;36732;47.980;11.652;2022-11-15T07:05:37;7.32;;;4.95;;
50757;SDS011;36732;47.980;11.652;2022-11-15T07:08:02;4.93;;;3.92;;
50757;SDS011;36732;47.980;11.652;2022-11-15T07:10:29;4.50;;;3.53;;
50757;SDS011;36732;47.980;11.652;2022-11-15T07:12:55;3.53;;;3.00;;
50757;SDS011;36732;47.980;11.652;2022-11-15T07:15:22;5.18;;;2.83;;
50757;SDS011;36732;47.980;11.652;2022-11-15T07:17:50;2.88;;;2.00;;
50757;SDS011;36732;47.980;11.652;2022-11-15T07:20:16;3.10;;;2.13;;
50757;SDS011;36732;47.980;11.652;2022-11-15T07:22:43;2.72;;;1.83;;
50757;SDS011;36732;47.980;11.652;2022-11-15T07:25:10;2.40;;;1.90;;
50757;SDS011;36732;47.980;11.652;2022-11-15T07:27:36;4.93;;;1.95;;
50757;SDS011;36732;47.980;11.652;2022-11-15T07:30:03;2.60;;;1.70;;
50757;SDS011;36732;47.980;11.652;2022-11-15T07:32:30;2.40;;;2.10;;
50757;SDS011;36732;47.980;11.652;2022-11-15T07:34:56;3.25;;;1.80;;
50757;SDS011;36732;47.980;11.652;2022-11-15T07:37:21;2.33;;;1.60;;
50757;SDS011;36732;47.980;11.652;2022-11-15T07:39:47;2.17;;;1.85;;
50757;SDS011;36732;47.980;11.652;2022-11-15T07:42:13;1.77;;;1.63;;
50757;SDS011;36732;47.980;11.652;2022-11-15T07:44:58;2.25;;;1.90;;
50757;SDS011;36732;47.980;11.652;2022-11-15T07:47:23;2.28;;;1.75;;
50757;SDS011;36732;47.980;11.652;2022-11-15T07:49:49;3.22;;;1.90;;
50757;SDS011;36732;47.980;11.652;2022-11-15T07:52:15;5.15;;;1.88;;
50757;SDS011;36732;47.980;11.652;2022-11-15T07:54:40;6.28;;;1.92;;
50757;SDS011;36732;47.980;11.652;2022-11-15T07:57:06;5.68;;;2.20;;
50757;SDS011;36732;47.980;11.652;2022-11-15T07:59:34;2.67;;;1.98;;
50757;SDS011;36732;47.980;11.652;2022-11-15T08:01:59;3.08;;;1.83;;
50757;SDS011;36732;47.980;11.652;2022-11-15T08:04:26;3.55;;;1.88;;
50757;SDS011;36732;47.980;11.652;2022-11-15T08:06:52;2.28;;;1.95;;
50757;SDS011;36732;47.980;11.652;2022-11-15T08:09:18;2.42;;;1.58;;
50757;SDS011;36732;47.980;11.652;2022-11-15T08:11:43;3.00;;;1.42;;
50757;SDS011;36732;47.980;11.652;2022-11-15T08:14:09;2.58;;;1.58;;
50757;SDS011;36732;47.980;11.652;2022-11-15T08:16:35;3.75;;;1.42;;
50757;SDS011;36732;47.980;11.652;2022-11-15T08:19:00;4.97;;;1.55;;
50757;SDS011;36732;47.980;11.652;2022-11-15T08:21:26;1.70;;;1.50;;
50757;SDS011;36732;47.980;11.652;2022-11-15T08:23:52;1.45;;;1.30;;
50757;SDS011;36732;47.980;11.652;2022-11-15T08:26:18;3.10;;;1.35;;
50757;SDS011;36732;47.980;11.652;2022-11-15T08:28:43;3.42;;;2.10;;
50757;SDS011;36732;47.980;11.652;2022-11-15T08:31:13;1.25;;;1.15;;
50757;SDS011;36732;47.980;11.652;2022-11-15T08:33:41;1.40;;;1.17;;
50757;SDS011;36732;47.980;11.652;2022-11-15T08:36:10;4.38;;;1.40;;
50757;SDS011;36732;47.980;11.652;2022-11-15T08:38:41;1.75;;;1.40;;
50757;SDS011;36732;47.980;11.652;2022-11-15T08:41:11;1.77;;;1.40;;
50757;SDS011;36732;47.980;11.652;2022-11-15T08:43:44;1.90;;;1.35;;
50757;SDS011;36732;47.980;11.652;2022-11-15T08:46:11;1.80;;;1.40;;
50757;SDS011;36732;47.980;11.652;2022-11-15T08:48:38;2.03;;;1.50;;
50757;SDS011;36732;47.980;11.652;2022-11-15T08:51:04;2.00;;;1.42;;
50757;SDS011;36732;47.980;11.652;2022-11-15T08:53:31;1.63;;;1.52;;
50757;SDS011;36732;47.980;11.652;2022-11-15T08:55:56;2.47;;;1.35;;
50757;SDS011;36732;47.980;11.652;2022-11-15T08:58:22;2.53;;;1.33;;
50757;SDS011;36732;47.980;11.652;2022-11-15T09:00:48;2.22;;;1.35;;
50757;SDS011;36732;47.980;11.652;2022-11-15T09:03:13;3.15;;;1.80;;
50757;SDS011;36732;47.980;11.652;2022-11-15T09:05:40;3.40;;;1.45;;
50757;SDS011;36732;47.980;11.652;2022-11-15T09:08:05;2.55;;;1.70;;
50757;SDS011;36732;47.980;11.652;2022-11-15T09:10:31;4.93;;;1.92;;
50757;SDS011;36732;47.980;11.652;2022-11-15T09:12:57;3.95;;;1.98;;
50757;SDS011;36732;47.980;11.652;2022-11-15T09:15:23;3.72;;;1.70;;
50757;SDS011;36732;47.980;11.652;2022-11-15T09:17:48;2.63;;;2.03;;
50757;SDS011;36732;47.980;11.652;2022-11-15T09:20:14;2.88;;;2.05;;
50757;SDS011;36732;47.980;11.652;2022-11-15T09:22:40;6.40;;;1.95;;
50757;SDS011;36732;47.980;11.652;2022-11-15T09:25:06;4.45;;;1.80;;
50757;SDS011;36732;47.980;11.652;2022-11-15T09:27:32;2.13;;;1.65;;
50757;SDS011;36732;47.980;11.652;2022-11-15T09:29:58;3.05;;;1.90;;
50757;SDS011;36732;47.980;11.652;2022-11-15T09:32:27;2.15;;;1.60;;
50757;SDS011;36732;47.980;11.652;2022-11-15T09:34:55;3.58;;;1.80;;
50757;SDS011;36732;47.980;11.652;2022-11-15T09:37:22;2.28;;;1.92;;
50757;SDS011;36732;47.980;11.652;2022-11-15T09:39:48;3.08;;;2.00;;
50757;SDS011;36732;47.980;11.652;2022-11-15T09:50:39;3.78;;;1.70;;
50757;SDS011;36732;47.980;11.652;2022-11-15T09:53:27;1.80;;;1.27;;
50757;SDS011;36732;47.980;11.652;2022-11-15T10:01:37;4.90;;;1.42;;
50757;SDS011;36732;47.980;11.652;2022-11-15T10:04:26;1.63;;;1.33;;
50757;SDS011;36732;47.980;11.652;2022-11-15T10:07:02;5.05;;;1.67;;
50757;SDS011;36732;47.980;11.652;2022-11-15T10:09:47;2.10;;;1.80;;
50757;SDS011;36732;47.980;11.652;2022-11-15T10:12:21;2.10;;;1.60;;
50757;SDS011;36732;47.980;11.652;2022-11-15T10:14:48;2.40;;;1.45;;
50757;SDS011;36732;47.980;11.652;2022-11-15T10:20:18;3.00;;;1.60;;
50757;SDS011;36732;47.980;11.652;2022-11-15T10:23:02;2.53;;;1.80;;
50757;SDS011;36732;47.980;11.652;2022-11-15T10:25:32;2.25;;;1.60;;
50757;SDS011;36732;47.980;11.652;2022-11-15T10:28:01;2.10;;;1.63;;
50757;SDS011;36732;47.980;11.652;2022-11-15T10:30:38;2.60;;;1.83;;
50757;SDS011;36732;47.980;11.652;2022-11-15T10:41:15;3.60;;;1.65;;
50757;SDS011;36732;47.980;11.652;2022-11-15T10:43:42;3.42;;;2.15;;
50757;SDS011;36732;47.980;11.652;2022-11-15T10:46:20;2.85;;;2.00;;
50757;SDS011;36732;47.980;11.652;2022-11-15T10:48:47;1.95;;;1.50;;
50757;SDS011;36732;47.980;11.652;2022-11-15T10:51:47;3.75;;;1.80;;
50757;SDS011;36732;47.980;11.652;2022-11-15T10:54:11;1.60;;;1.50;;
50757;SDS011;36732;47.980;11.652;2022-11-15T10:56:42;5.97;;;1.60;;
50757;SDS011;36732;47.980;11.652;2022-11-15T10:59:23;1.60;;;1.50;;
50757;SDS011;36732;47.980;11.652;2022-11-15T11:01:54;1.63;;;1.45;;
50757;SDS011;36732;47.980;11.652;2022-11-15T11:04:20;1.77;;;1.67;;
50757;SDS011;36732;47.980;11.652;2022-11-15T11:09:30;1.77;;;1.58;;
50757;SDS011;36732;47.980;11.652;2022-11-15T11:12:05;4.13;;;2.08;;
50757;SDS011;36732;47.980;11.652;2022-11-15T11:14:36;3.33;;;2.28;;
50757;SDS011;36732;47.980;11.652;2022-11-15T11:17:28;4.30;;;2.10;;
50757;SDS011;36732;47.980;11.652;2022-11-15T11:43:04;2.38;;;1.75;;
50757;SDS011;36732;47.980;11.652;2022-11-15T11:48:58;4.20;;;1.70;;
50757;SDS011;36732;47.980;11.652;2022-11-15T11:51:43;2.03;;;1.80;;
50757;SDS011;36732;47.980;11.652;2022-11-15T11:54:47;2.10;;;1.60;;
50757;SDS011;36732;47.980;11.652;2022-11-15T11:57:41;2.10;;;1.80;;
50757;SDS011;36732;47.980;11.652;2022-11-15T12:00:22;2.80;;;2.00;;
50757;SDS011;36732;47.980;11.652;2022-11-15T12:05:46;3.20;;;1.85;;
50757;SDS011;36732;47.980;11.652;2022-11-15T12:11:29;2.10;;;1.55;;
50757;SDS011;36732;47.980;11.652;2022-11-15T12:14:12;2.08;;;1.60;;
50757;SDS011;36732;47.980;11.652;2022-11-15T12:16:58;4.85;;;1.90;;
50757;SDS011;36732;47.980;11.652;2022-11-15T12:19:25;2.05;;;1.60;;
50757;SDS011;36732;47.980;11.652;2022-11-15T12:22:00;2.40;;;1.45;;
50757;SDS011;36732;47.980;11.652;2022-11-15T12:24:39;1.92;;;1.52;;
50757;SDS011;36732;47.980;11.652;2022-11-15T12:27:18;2.30;;;1.70;;
50757;SDS011;36732;47.980;11.652;2022-11-15T12:30:09;3.28;;;1.92;;
50757;SDS011;36732;47.980;11.652;2022-11-15T12:32:49;1.50;;;1.40;;
50757;SDS011;36732;47.980;11.652;2022-11-15T12:35:24;2.85;;;1.95;;
50757;SDS011;36732;47.980;11.652;2022-11-15T12:37:55;2.58;;;1.42;;
50757;SDS011;36732;47.980;11.652;2022-11-15T12:40:23;3.03;;;1.65;;
50757;SDS011;36732;47.980;11.652;2022-11-15T12:45:41;1.88;;;1.52;;
50757;SDS011;36732;47.980;11.652;2022-11-15T12:56:08;2.47;;;1.98;;
50757;SDS011;36732;47.980;11.652;2022-11-15T12:58:56;2.80;;;1.60;;
50757;SDS011;36732;47.980;11.652;2022-11-15T13:06:49;2.88;;;1.80;;
50757;SDS011;36732;47.980;11.652;2022-11-15T13:14:53;2.35;;;1.70;;
50757;SDS011;36732;47.980;11.652;2022-11-15T13:19:45;4.18;;;2.20;;
50757;SDS011;36732;47.980;11.652;2022-11-15T13:22:13;4.32;;;3.13;;
50757;SDS011;36732;47.980;11.652;2022-11-15T13:25:01;5.43;;;2.50;;
50757;SDS011;36732;47.980;11.652;2022-11-15T13:27:27;4.13;;;2.38;;
50757;SDS011;36732;47.980;11.652;2022-11-15T13:29:54;5.35;;;2.40;;
50757;SDS011;36732;47.980;11.652;2022-11-15T13:32:20;3.10;;;2.35;;
50757;SDS011;36732;47.980;11.652;2022-11-15T13:34:47;4.47;;;2.28;;
50757;SDS011;36732;47.980;11.652;2022-11-15T13:39:46;2.50;;;1.77;;
50757;SDS011;36732;47.980;11.652;2022-11-15T13:42:17;1.95;;;1.40;;
50757;SDS011;36732;47.980;11.652;2022-11-15T13:44:55;2.53;;;1.70;;
50757;SDS011;36732;47.980;11.652;2022-11-15T13:47:24;1.67;;;1.27;;
50757;SDS011;36732;47.980;11.652;2022-11-15T13:49:52;1.60;;;1.50;;
50757;SDS011;36732;47.980;11.652;2022-11-15T13:52:18;2.15;;;1.70;;
50757;SDS011;36732;47.980;11.652;2022-11-15T13:57:21;1.52;;;1.42;;
50757;SDS011;36732;47.980;11.652;2022-11-15T14:00:01;2.08;;;1.67;;
50757;SDS011;36732;47.980;11.652;2022-11-15T14:02:31;1.80;;;1.70;;
50757;SDS011;36732;47.980;11.652;2022-11-15T14:05:00;2.25;;;1.73;;
50757;SDS011;36732;47.980;11.652;2022-11-15T14:07:40;1.90;;;1.65;;
50757;SDS011;36732;47.980;11.652;2022-11-15T14:10:32;3.17;;;1.75;;
50757;SDS011;36732;47.980;11.652;2022-11-15T14:13:01;2.15;;;1.63;;
50757;SDS011;36732;47.980;11.652;2022-11-15T14:15:33;2.03;;;1.80;;
50757;SDS011;36732;47.980;11.652;2022-11-15T14:18:01;2.22;;;1.80;;
50757;SDS011;36732;47.980;11.652;2022-11-15T14:20:32;2.55;;;2.03;;
50757;SDS011;36732;47.980;11.652;2022-11-15T14:23:05;3.65;;;1.92;;
50757;SDS011;36732;47.980;11.652;2022-11-15T14:30:50;2.08;;;1.88;;
50757;SDS011;36732;47.980;11.652;2022-11-15T14:33:22;3.05;;;2.00;;
50757;SDS011;36732;47.980;11.652;2022-11-15T14:35:54;2.78;;;2.28;;
50757;SDS011;36732;47.980;11.652;2022-11-15T14:38:22;4.45;;;2.13;;
50757;SDS011;36732;47.980;11.652;2022-11-15T14:40:49;2.65;;;1.92;;
50757;SDS011;36732;47.980;11.652;2022-11-15T14:43:16;2.30;;;1.55;;
50757;SDS011;36732;47.980;11.652;2022-11-15T14:45:41;4.85;;;2.25;;
50757;SDS011;36732;47.980;11.652;2022-11-15T14:48:07;2.85;;;2.03;;
50757;SDS011;36732;47.980;11.652;2022-11-15T14:50:33;4.03;;;1.80;;
50757;SDS011;36732;47.980;11.652;2022-11-15T14:53:00;2.25;;;1.95;;
50757;SDS011;36732;47.980;11.652;2022-11-15T14:55:35;4.93;;;1.92;;
50757;SDS011;36732;47.980;11.652;2022-11-15T14:58:02;2.92;;;2.00;;
50757;SDS011;36732;47.980;11.652;2022-11-15T15:00:30;2.30;;;1.50;;
50757;SDS011;36732;47.980;11.652;2022-11-15T15:02:56;1.73;;;1.50;;
50757;SDS011;36732;47.980;11.652;2022-11-15T15:05:29;3.13;;;2.08;;
50757;SDS011;36732;47.980;11.652;2022-11-15T15:08:00;2.47;;;1.48;;
50757;SDS011;36732;47.980;11.652;2022-11-15T15:10:27;4.30;;;1.83;;
50757;SDS011;36732;47.980;11.652;2022-11-15T15:12:58;4.20;;;1.85;;
50757;SDS011;36732;47.980;11.652;2022-11-15T15:15:25;4.25;;;1.85;;
50757;SDS011;36732;47.980;11.652;2022-11-15T15:20:23;1.80;;;1.50;;
50757;SDS011;36732;47.980;11.652;2022-11-15T15:22:49;6.57;;;1.63;;
50757;SDS011;36732;47.980;11.652;2022-11-15T15:25:27;2.50;;;1.40;;
50757;SDS011;36732;47.980;11.652;2022-11-15T15:28:00;2.80;;;1.52;;
50757;SDS011;36732;47.980;11.652;2022-11-15T15:30:27;5.75;;;1.75;;
50757;SDS011;36732;47.980;11.652;2022-11-15T15:32:55;2.03;;;1.55;;
50757;SDS011;36732;47.980;11.652;2022-11-15T15:35:21;1.58;;;1.48;;
50757;SDS011;36732;47.980;11.652;2022-11-15T15:37:48;2.17;;;1.55;;
50757;SDS011;36732;47.980;11.652;2022-11-15T15:45:14;2.17;;;1.63;;
50757;SDS011;36732;47.980;11.652;2022-11-15T15:47:42;4.45;;;2.47;;
50757;SDS011;36732;47.980;11.652;2022-11-15T15:52:57;3.67;;;1.95;;
50757;SDS011;36732;47.980;11.652;2022-11-15T15:55:25;3.35;;;2.25;;
50757;SDS011;36732;47.980;11.652;2022-11-15T15:57:52;3.67;;;2.63;;
50757;SDS011;36732;47.980;11.652;2022-11-15T16:00:18;3.50;;;2.47;;
50757;SDS011;36732;47.980;11.652;2022-11-15T16:02:46;2.40;;;1.90;;
50757;SDS011;36732;47.980;11.652;2022-11-15T16:05:12;3.10;;;2.30;;
50757;SDS011;36732;47.980;11.652;2022-11-15T16:07:38;2.80;;;1.67;;
50757;SDS011;36732;47.980;11.652;2022-11-15T16:10:24;2.65;;;1.70;;
50757;SDS011;36732;47.980;11.652;2022-11-15T16:12:53;1.98;;;1.58;;
50757;SDS011;36732;47.980;11.652;2022-11-15T16:15:21;1.63;;;1.40;;
50757;SDS011;36732;47.980;11.652;2022-11-15T16:17:50;3.70;;;1.40;;
50757;SDS011;36732;47.980;11.652;2022-11-15T16:23:04;2.05;;;1.85;;
50757;SDS011;36732;47.980;11.652;2022-11-15T16:25:54;2.90;;;2.60;;
50757;SDS011;36732;47.980;11.652;2022-11-15T16:28:30;2.67;;;2.45;;
50757;SDS011;36732;47.980;11.652;2022-11-15T16:31:01;3.55;;;3.10;;
50757;SDS011;36732;47.980;11.652;2022-11-15T16:33:34;5.25;;;3.85;;
50757;SDS011;36732;47.980;11.652;2022-11-15T16:36:00;4.65;;;3.78;;
50757;SDS011;36732;47.980;11.652;2022-11-15T16:38:27;7.25;;;3.40;;
50757;SDS011;36732;47.980;11.652;2022-11-15T16:40:53;4.45;;;3.35;;
50757;SDS011;36732;47.980;11.652;2022-11-15T16:43:19;4.72;;;3.83;;
50757;SDS011;36732;47.980;11.652;2022-11-15T16:45:45;6.13;;;4.00;;
50757;SDS011;36732;47.980;11.652;2022-11-15T16:48:29;3.85;;;3.42;;
50757;SDS011;36732;47.980;11.652;2022-11-15T16:53:22;8.95;;;5.38;;
50757;SDS011;36732;47.980;11.652;2022-11-15T16:55:49;10.75;;;6.13;;
50757;SDS011;36732;47.980;11.652;2022-11-15T16:58:15;14.50;;;6.90;;
50757;SDS011;36732;47.980;11.652;2022-11-15T17:00:40;18.17;;;7.97;;
50757;SDS011;36732;47.980;11.652;2022-11-15T17:03:06;20.50;;;11.63;;
50757;SDS011;36732;47.980;11.652;2022-11-15T17:05:32;17.23;;;10.82;;
50757;SDS011;36732;47.980;11.652;2022-11-15T17:07:58;13.63;;;7.22;;
50757;SDS011;36732;47.980;11.652;2022-11-15T17:10:24;11.88;;;7.40;;